sensor_id;sensor_type;location;lat;lon;timestamp;temperature;humidity
14378;DHT22;7272;53.668;9.578;2022-12-18T00:01:36;-3.40;99.90
14378;DHT22;7272;53.668;9.578;2022-12-18T00:04:39;-3.40;99.90
14378;DHT22;7272;53.668;9.578;2022-12-18T00:07:41;-3.40;99.90
14378;DHT22;7272;53.668;9.578;2022-12-18T00:10:46;-3.40;99.90
14378;DHT22;7272;53.668;9.578;2022-12-18T00:13:49;-3.40;99.90
14378;DHT22;7272;53.668;9.578;2022-12-18T00:16:51;-3.30;99.90
14378;DHT22;7272;53.668;9.578;2022-12-18T00:20:00;-3.30;99.90
14378;DHT22;7272;53.668;9.578;2022-12-18T00:23:07;-3.30;99.90
14378;DHT22;7272;53.668;9.578;2022-12-18T00:26:13;-3.30;99.90
14378;DHT22;7272;53.668;9.578;2022-12-18T00:29:19;-3.30;99.90
14378;DHT22;7272;53.668;9.578;2022-12-18T00:32:23;-3.30;99.90
14378;DHT22;7272;53.668;9.578;2022-12-18T00:35:28;-3.30;99.90
14378;DHT22;7272;53.668;9.578;2022-12-18T00:38:32;-3.30;99.90
14378;DHT22;7272;53.668;9.578;2022-12-18T00:41:39;-3.30;99.90
14378;DHT22;7272;53.668;9.578;2022-12-18T00:45:02;-3.30;99.90
14378;DHT22;7272;53.668;9.578;2022-12-18T00:48:09;-3.30;99.90
14378;DHT22;7272;53.668;9.578;2022-12-18T00:51:14;-3.30;99.90
14378;DHT22;7272;53.668;9.578;2022-12-18T00:54:18;-3.40;99.90
14378;DHT22;7272;53.668;9.578;2022-12-18T00:57:25;-3.40;99.90
14378;DHT22;7272;53.668;9.578;2022-12-18T01:00:28;-3.40;99.90
14378;DHT22;7272;53.668;9.578;2022-12-18T01:03:32;-3.40;99.90
14378;DHT22;7272;53.668;9.578;2022-12-18T01:06:38;-3.50;99.90
14378;DHT22;7272;53.668;9.578;2022-12-18T01:09:43;-3.50;99.90
14378;DHT22;7272;53.668;9.578;2022-12-18T01:13:00;-3.50;99.90
14378;DHT22;7272;53.668;9.578;2022-12-18T01:16:05;-3.50;99.90
14378;DHT22;7272;53.668;9.578;2022-12-18T01:19:09;-3.50;99.90
14378;DHT22;7272;53.668;9.578;2022-12-18T01:22:12;-3.50;99.90
14378;DHT22;7272;53.668;9.578;2022-12-18T01:25:15;-3.40;99.90
14378;DHT22;7272;53.668;9.578;2022-12-18T01:28:19;-3.40;99.90
14378;DHT22;7272;53.668;9.578;2022-12-18T01:31:26;-3.40;99.90
14378;DHT22;7272;53.668;9.578;2022-12-18T01:34:29;-3.40;99.90
14378;DHT22;7272;53.668;9.578;2022-12-18T01:37:38;-3.40;99.90
14378;DHT22;7272;53.668;9.578;2022-12-18T01:40:41;-3.40;99.90
14378;DHT22;7272;53.668;9.578;2022-12-18T01:43:54;-3.40;99.90
14378;DHT22;7272;53.668;9.578;2022-12-18T01:46:58;-3.40;99.90
14378;DHT22;7272;53.668;9.578;2022-12-18T01:50:03;-3.40;99.90
14378;DHT22;7272;53.668;9.578;2022-12-18T01:53:09;-3.40;99.90
14378;DHT22;7272;53.668;9.578;2022-12-18T01:56:15;-3.40;99.90
14378;DHT22;7272;53.668;9.578;2022-12-18T01:59:20;-3.40;99.90
14378;DHT22;7272;53.668;9.578;2022-12-18T02:02:23;-3.50;99.90
14378;DHT22;7272;53.668;9.578;2022-12-18T02:05:35;-3.50;99.90
14378;DHT22;7272;53.668;9.578;2022-12-18T02:08:47;-3.50;99.90
14378;DHT22;7272;53.668;9.578;2022-12-18T02:11:56;-3.50;99.90
14378;DHT22;7272;53.668;9.578;2022-12-18T02:15:10;-3.50;99.90
14378;DHT22;7272;53.668;9.578;2022-12-18T02:18:19;-3.50;99.90
14378;DHT22;7272;53.668;9.578;2022-12-18T02:21:31;-3.50;99.90
14378;DHT22;7272;53.668;9.578;2022-12-18T02:24:44;-3.50;99.90
14378;DHT22;7272;53.668;9.578;2022-12-18T02:27:53;-3.50;99.90
14378;DHT22;7272;53.668;9.578;2022-12-18T02:31:00;-3.50;99.90
14378;DHT22;7272;53.668;9.578;2022-12-18T02:34:05;-3.60;99.90
14378;DHT22;7272;53.668;9.578;2022-12-18T02:37:14;-3.60;99.90
14378;DHT22;7272;53.668;9.578;2022-12-18T02:40:19;-3.60;99.90
14378;DHT22;7272;53.668;9.578;2022-12-18T02:43:26;-3.70;99.90
14378;DHT22;7272;53.668;9.578;2022-12-18T02:46:33;-3.70;99.90
14378;DHT22;7272;53.668;9.578;2022-12-18T02:49:52;-3.70;99.90
14378;DHT22;7272;53.668;9.578;2022-12-18T02:53:04;-3.70;99.90
14378;DHT22;7272;53.668;9.578;2022-12-18T02:56:13;-3.70;99.90
14378;DHT22;7272;53.668;9.578;2022-12-18T02:59:23;-3.70;99.90
14378;DHT22;7272;53.668;9.578;2022-12-18T03:02:36;-3.70;99.90
14378;DHT22;7272;53.668;9.578;2022-12-18T03:05:43;-3.70;99.90
14378;DHT22;7272;53.668;9.578;2022-12-18T03:08:50;-3.70;99.90
14378;DHT22;7272;53.668;9.578;2022-12-18T03:12:02;-3.70;99.90
14378;DHT22;7272;53.668;9.578;2022-12-18T03:15:26;-3.80;99.90
14378;DHT22;7272;53.668;9.578;2022-12-18T03:18:42;-3.80;99.90
14378;DHT22;7272;53.668;9.578;2022-12-18T03:21:50;-3.80;99.90
14378;DHT22;7272;53.668;9.578;2022-12-18T03:24:54;-3.80;99.90
14378;DHT22;7272;53.668;9.578;2022-12-18T03:28:01;-3.80;99.90
14378;DHT22;7272;53.668;9.578;2022-12-18T03:31:08;-3.80;99.90
14378;DHT22;7272;53.668;9.578;2022-12-18T03:34:14;-3.80;99.90
14378;DHT22;7272;53.668;9.578;2022-12-18T03:37:21;-3.80;99.90
14378;DHT22;7272;53.668;9.578;2022-12-18T03:40:29;-3.80;99.90
14378;DHT22;7272;53.668;9.578;2022-12-18T03:43:41;-3.80;99.90
14378;DHT22;7272;53.668;9.578;2022-12-18T03:46:54;-3.80;99.90
14378;DHT22;7272;53.668;9.578;2022-12-18T03:50:10;-3.80;99.90
14378;DHT22;7272;53.668;9.578;2022-12-18T03:53:21;-3.70;99.90
14378;DHT22;7272;53.668;9.578;2022-12-18T03:56:31;-3.80;99.90
14378;DHT22;7272;53.668;9.578;2022-12-18T03:59:35;-3.80;99.90
14378;DHT22;7272;53.668;9.578;2022-12-18T04:02:46;-3.80;99.90
14378;DHT22;7272;53.668;9.578;2022-12-18T04:05:58;-3.80;99.90
14378;DHT22;7272;53.668;9.578;2022-12-18T04:09:04;-3.80;99.90
14378;DHT22;7272;53.668;9.578;2022-12-18T04:12:11;-3.80;99.90
14378;DHT22;7272;53.668;9.578;2022-12-18T04:15:14;-3.80;99.90
14378;DHT22;7272;53.668;9.578;2022-12-18T04:18:19;-3.90;99.90
14378;DHT22;7272;53.668;9.578;2022-12-18T04:21:23;-3.90;99.90
14378;DHT22;7272;53.668;9.578;2022-12-18T04:24:27;-3.90;99.90
14378;DHT22;7272;53.668;9.578;2022-12-18T04:27:40;-3.90;99.90
14378;DHT22;7272;53.668;9.578;2022-12-18T04:30:43;-3.90;99.90
14378;DHT22;7272;53.668;9.578;2022-12-18T04:33:56;-3.80;99.90
14378;DHT22;7272;53.668;9.578;2022-12-18T04:36:59;-3.90;99.90
14378;DHT22;7272;53.668;9.578;2022-12-18T04:40:03;-3.90;99.90
14378;DHT22;7272;53.668;9.578;2022-12-18T04:43:13;-3.90;99.90
14378;DHT22;7272;53.668;9.578;2022-12-18T04:46:15;-4.00;99.90
14378;DHT22;7272;53.668;9.578;2022-12-18T04:49:20;-4.00;99.90
14378;DHT22;7272;53.668;9.578;2022-12-18T04:52:22;-4.00;99.90
14378;DHT22;7272;53.668;9.578;2022-12-18T04:55:27;-4.00;99.90
14378;DHT22;7272;53.668;9.578;2022-12-18T04:58:30;-4.00;99.90
14378;DHT22;7272;53.668;9.578;2022-12-18T05:01:33;-3.90;99.90
14378;DHT22;7272;53.668;9.578;2022-12-18T05:04:37;-3.90;99.90
14378;DHT22;7272;53.668;9.578;2022-12-18T05:07:39;-4.00;99.90
14378;DHT22;7272;53.668;9.578;2022-12-18T05:10:42;-4.00;99.90
14378;DHT22;7272;53.668;9.578;2022-12-18T05:13:45;-4.00;99.90
14378;DHT22;7272;53.668;9.578;2022-12-18T05:16:47;-4.00;99.90
14378;DHT22;7272;53.668;9.578;2022-12-18T05:19:51;-4.00;99.90
14378;DHT22;7272;53.668;9.578;2022-12-18T05:22:54;-4.10;99.90
14378;DHT22;7272;53.668;9.578;2022-12-18T05:25:58;-4.10;99.90
14378;DHT22;7272;53.668;9.578;2022-12-18T05:29:01;-4.10;99.90
14378;DHT22;7272;53.668;9.578;2022-12-18T05:32:04;-4.20;99.90
14378;DHT22;7272;53.668;9.578;2022-12-18T05:35:09;-4.20;99.90
14378;DHT22;7272;53.668;9.578;2022-12-18T05:38:12;-4.30;99.90
14378;DHT22;7272;53.668;9.578;2022-12-18T05:41:14;-4.30;99.90
14378;DHT22;7272;53.668;9.578;2022-12-18T05:44:17;-4.30;99.90
14378;DHT22;7272;53.668;9.578;2022-12-18T05:47:19;-4.30;99.90
14378;DHT22;7272;53.668;9.578;2022-12-18T05:50:23;-4.30;99.90
14378;DHT22;7272;53.668;9.578;2022-12-18T05:53:26;-4.40;99.90
14378;DHT22;7272;53.668;9.578;2022-12-18T05:56:28;-4.30;99.90
14378;DHT22;7272;53.668;9.578;2022-12-18T05:59:31;-4.30;99.90
14378;DHT22;7272;53.668;9.578;2022-12-18T06:02:33;-4.40;99.90
14378;DHT22;7272;53.668;9.578;2022-12-18T06:05:39;-4.40;99.90
14378;DHT22;7272;53.668;9.578;2022-12-18T06:08:43;-4.40;99.90
14378;DHT22;7272;53.668;9.578;2022-12-18T06:11:45;-4.40;99.90
14378;DHT22;7272;53.668;9.578;2022-12-18T06:14:48;-4.40;99.90
14378;DHT22;7272;53.668;9.578;2022-12-18T06:17:51;-4.40;99.90
14378;DHT22;7272;53.668;9.578;2022-12-18T06:20:56;-4.40;99.90
14378;DHT22;7272;53.668;9.578;2022-12-18T06:24:00;-4.40;99.90
14378;DHT22;7272;53.668;9.578;2022-12-18T06:27:02;-4.40;99.90
14378;DHT22;7272;53.668;9.578;2022-12-18T06:30:06;-4.40;99.90
14378;DHT22;7272;53.668;9.578;2022-12-18T06:33:09;-4.40;99.90
14378;DHT22;7272;53.668;9.578;2022-12-18T06:36:14;-4.50;99.90
14378;DHT22;7272;53.668;9.578;2022-12-18T06:39:17;-4.50;99.90
14378;DHT22;7272;53.668;9.578;2022-12-18T06:42:24;-4.50;99.90
14378;DHT22;7272;53.668;9.578;2022-12-18T06:45:27;-4.50;99.90
14378;DHT22;7272;53.668;9.578;2022-12-18T06:48:30;-4.50;99.90
14378;DHT22;7272;53.668;9.578;2022-12-18T06:51:34;-4.50;99.90
14378;DHT22;7272;53.668;9.578;2022-12-18T06:54:36;-4.50;99.90
14378;DHT22;7272;53.668;9.578;2022-12-18T06:57:39;-4.50;99.90
14378;DHT22;7272;53.668;9.578;2022-12-18T07:00:41;-4.40;99.90
14378;DHT22;7272;53.668;9.578;2022-12-18T07:03:44;-4.40;99.90
14378;DHT22;7272;53.668;9.578;2022-12-18T07:06:48;-4.30;99.90
14378;DHT22;7272;53.668;9.578;2022-12-18T07:09:50;-4.30;99.90
14378;DHT22;7272;53.668;9.578;2022-12-18T07:12:53;-4.30;99.90
14378;DHT22;7272;53.668;9.578;2022-12-18T07:16:02;-4.20;99.90
14378;DHT22;7272;53.668;9.578;2022-12-18T07:19:04;-4.30;99.90
14378;DHT22;7272;53.668;9.578;2022-12-18T07:22:08;-4.20;99.90
14378;DHT22;7272;53.668;9.578;2022-12-18T07:25:11;-4.20;99.90
14378;DHT22;7272;53.668;9.578;2022-12-18T07:28:13;-4.20;99.90
14378;DHT22;7272;53.668;9.578;2022-12-18T07:31:18;-4.20;99.90
14378;DHT22;7272;53.668;9.578;2022-12-18T07:34:20;-4.10;99.90
14378;DHT22;7272;53.668;9.578;2022-12-18T07:37:24;-4.10;99.90
14378;DHT22;7272;53.668;9.578;2022-12-18T07:40:27;-4.10;99.90
14378;DHT22;7272;53.668;9.578;2022-12-18T07:43:29;-4.10;99.90
14378;DHT22;7272;53.668;9.578;2022-12-18T07:46:32;-4.00;99.90
14378;DHT22;7272;53.668;9.578;2022-12-18T07:49:34;-3.90;99.90
14378;DHT22;7272;53.668;9.578;2022-12-18T07:52:39;-3.90;99.90
14378;DHT22;7272;53.668;9.578;2022-12-18T07:55:42;-3.90;99.90
14378;DHT22;7272;53.668;9.578;2022-12-18T07:58:44;-3.80;99.90
14378;DHT22;7272;53.668;9.578;2022-12-18T08:01:50;-3.80;99.90
14378;DHT22;7272;53.668;9.578;2022-12-18T08:04:52;-3.80;99.90
14378;DHT22;7272;53.668;9.578;2022-12-18T08:07:58;-3.70;99.90
14378;DHT22;7272;53.668;9.578;2022-12-18T08:11:01;-3.70;99.90
14378;DHT22;7272;53.668;9.578;2022-12-18T08:14:03;-3.60;99.90
14378;DHT22;7272;53.668;9.578;2022-12-18T08:17:06;-3.60;99.90
14378;DHT22;7272;53.668;9.578;2022-12-18T08:20:09;-3.60;99.90
14378;DHT22;7272;53.668;9.578;2022-12-18T08:23:13;-3.50;99.90
14378;DHT22;7272;53.668;9.578;2022-12-18T08:26:16;-3.50;99.90
14378;DHT22;7272;53.668;9.578;2022-12-18T08:29:18;-3.40;99.90
14378;DHT22;7272;53.668;9.578;2022-12-18T08:32:21;-3.40;99.90
14378;DHT22;7272;53.668;9.578;2022-12-18T08:35:24;-3.30;99.90
14378;DHT22;7272;53.668;9.578;2022-12-18T08:38:28;-3.20;99.90
14378;DHT22;7272;53.668;9.578;2022-12-18T08:41:30;-3.20;99.90
14378;DHT22;7272;53.668;9.578;2022-12-18T08:44:33;-3.10;99.90
14378;DHT22;7272;53.668;9.578;2022-12-18T08:47:40;-3.00;99.90
14378;DHT22;7272;53.668;9.578;2022-12-18T08:50:43;-2.90;99.90
14378;DHT22;7272;53.668;9.578;2022-12-18T08:53:47;-2.90;99.90
14378;DHT22;7272;53.668;9.578;2022-12-18T08:56:50;-2.80;99.90
14378;DHT22;7272;53.668;9.578;2022-12-18T08:59:52;-2.70;99.90
14378;DHT22;7272;53.668;9.578;2022-12-18T09:02:55;-2.60;99.90
14378;DHT22;7272;53.668;9.578;2022-12-18T09:05:57;-2.60;99.90
14378;DHT22;7272;53.668;9.578;2022-12-18T09:09:02;-2.50;99.90
14378;DHT22;7272;53.668;9.578;2022-12-18T09:12:04;-2.40;99.90
14378;DHT22;7272;53.668;9.578;2022-12-18T09:15:07;-2.30;99.90
14378;DHT22;7272;53.668;9.578;2022-12-18T09:18:10;-2.30;99.90
14378;DHT22;7272;53.668;9.578;2022-12-18T09:21:14;-2.20;99.90
14378;DHT22;7272;53.668;9.578;2022-12-18T09:24:19;-2.20;99.90
14378;DHT22;7272;53.668;9.578;2022-12-18T09:27:24;-2.10;99.90
14378;DHT22;7272;53.668;9.578;2022-12-18T09:30:27;-2.00;99.90
14378;DHT22;7272;53.668;9.578;2022-12-18T09:33:29;-1.90;99.90
14378;DHT22;7272;53.668;9.578;2022-12-18T09:36:32;-1.80;99.90
14378;DHT22;7272;53.668;9.578;2022-12-18T09:39:38;-1.80;99.90
14378;DHT22;7272;53.668;9.578;2022-12-18T09:42:41;-1.70;99.90
14378;DHT22;7272;53.668;9.578;2022-12-18T09:45:49;-1.60;99.90
14378;DHT22;7272;53.668;9.578;2022-12-18T09:48:56;-1.50;99.90
14378;DHT22;7272;53.668;9.578;2022-12-18T09:52:03;-1.40;99.90
14378;DHT22;7272;53.668;9.578;2022-12-18T09:55:15;-1.40;99.90
14378;DHT22;7272;53.668;9.578;2022-12-18T09:58:26;-1.30;99.90
14378;DHT22;7272;53.668;9.578;2022-12-18T10:01:32;-1.30;99.90
14378;DHT22;7272;53.668;9.578;2022-12-18T10:04:35;-1.20;99.90
14378;DHT22;7272;53.668;9.578;2022-12-18T10:07:48;-1.00;99.90
14378;DHT22;7272;53.668;9.578;2022-12-18T10:10:56;-0.90;99.90
14378;DHT22;7272;53.668;9.578;2022-12-18T10:14:04;-0.90;99.90
14378;DHT22;7272;53.668;9.578;2022-12-18T10:17:18;-0.80;99.90
14378;DHT22;7272;53.668;9.578;2022-12-18T10:20:32;-0.70;99.90
14378;DHT22;7272;53.668;9.578;2022-12-18T10:23:45;-0.70;99.90
14378;DHT22;7272;53.668;9.578;2022-12-18T10:26:57;-0.70;99.90
14378;DHT22;7272;53.668;9.578;2022-12-18T10:30:12;-0.70;99.90
14378;DHT22;7272;53.668;9.578;2022-12-18T10:33:18;-0.60;99.90
14378;DHT22;7272;53.668;9.578;2022-12-18T10:36:22;-0.60;99.90
14378;DHT22;7272;53.668;9.578;2022-12-18T10:39:25;-0.60;99.90
14378;DHT22;7272;53.668;9.578;2022-12-18T10:42:29;-0.40;99.90
14378;DHT22;7272;53.668;9.578;2022-12-18T10:45:32;-0.30;99.90
14378;DHT22;7272;53.668;9.578;2022-12-18T10:48:40;-0.20;99.90
14378;DHT22;7272;53.668;9.578;2022-12-18T10:51:43;-0.10;99.90
14378;DHT22;7272;53.668;9.578;2022-12-18T10:54:51;0.00;99.90
14378;DHT22;7272;53.668;9.578;2022-12-18T10:58:16;0.00;99.90
14378;DHT22;7272;53.668;9.578;2022-12-18T11:01:20;0.10;99.90
14378;DHT22;7272;53.668;9.578;2022-12-18T11:04:23;0.10;99.90
14378;DHT22;7272;53.668;9.578;2022-12-18T11:07:47;0.10;99.90
14378;DHT22;7272;53.668;9.578;2022-12-18T11:10:51;0.10;99.90
14378;DHT22;7272;53.668;9.578;2022-12-18T11:14:04;0.20;99.90
14378;DHT22;7272;53.668;9.578;2022-12-18T11:17:18;0.20;99.90
14378;DHT22;7272;53.668;9.578;2022-12-18T11:20:27;0.20;99.90
14378;DHT22;7272;53.668;9.578;2022-12-18T11:23:33;0.20;99.90
14378;DHT22;7272;53.668;9.578;2022-12-18T11:26:36;0.10;99.90
14378;DHT22;7272;53.668;9.578;2022-12-18T11:29:42;0.20;99.90
14378;DHT22;7272;53.668;9.578;2022-12-18T11:32:45;0.10;99.90
14378;DHT22;7272;53.668;9.578;2022-12-18T11:35:51;0.10;99.90
14378;DHT22;7272;53.668;9.578;2022-12-18T11:38:55;0.30;99.90
14378;DHT22;7272;53.668;9.578;2022-12-18T11:42:04;0.50;99.90
14378;DHT22;7272;53.668;9.578;2022-12-18T11:45:27;0.60;99.90
14378;DHT22;7272;53.668;9.578;2022-12-18T11:48:34;0.70;99.90
14378;DHT22;7272;53.668;9.578;2022-12-18T11:51:44;0.70;99.90
14378;DHT22;7272;53.668;9.578;2022-12-18T11:54:52;0.70;99.90
14378;DHT22;7272;53.668;9.578;2022-12-18T11:57:59;0.70;99.90
14378;DHT22;7272;53.668;9.578;2022-12-18T12:01:15;0.70;99.90
14378;DHT22;7272;53.668;9.578;2022-12-18T12:04:49;0.60;99.90
14378;DHT22;7272;53.668;9.578;2022-12-18T12:08:02;0.60;99.90
14378;DHT22;7272;53.668;9.578;2022-12-18T12:11:09;0.60;99.90
14378;DHT22;7272;53.668;9.578;2022-12-18T12:14:27;0.60;99.90
14378;DHT22;7272;53.668;9.578;2022-12-18T12:17:40;0.60;99.90
14378;DHT22;7272;53.668;9.578;2022-12-18T12:20:50;0.60;99.90
14378;DHT22;7272;53.668;9.578;2022-12-18T12:24:02;0.60;99.90
14378;DHT22;7272;53.668;9.578;2022-12-18T12:27:15;0.70;99.90
14378;DHT22;7272;53.668;9.578;2022-12-18T12:30:24;0.70;99.90
14378;DHT22;7272;53.668;9.578;2022-12-18T12:33:36;0.70;99.90
14378;DHT22;7272;53.668;9.578;2022-12-18T12:36:52;0.80;99.90
14378;DHT22;7272;53.668;9.578;2022-12-18T12:39:56;0.90;99.90
14378;DHT22;7272;53.668;9.578;2022-12-18T12:43:07;1.00;99.90
14378;DHT22;7272;53.668;9.578;2022-12-18T12:46:17;1.00;99.90
14378;DHT22;7272;53.668;9.578;2022-12-18T12:49:26;1.10;99.90
14378;DHT22;7272;53.668;9.578;2022-12-18T12:52:32;1.10;99.90
14378;DHT22;7272;53.668;9.578;2022-12-18T12:55:35;1.10;99.90
14378;DHT22;7272;53.668;9.578;2022-12-18T12:58:45;1.10;99.90
14378;DHT22;7272;53.668;9.578;2022-12-18T13:01:54;1.10;99.90
14378;DHT22;7272;53.668;9.578;2022-12-18T13:05:05;1.20;99.90
14378;DHT22;7272;53.668;9.578;2022-12-18T13:08:21;1.20;99.90
14378;DHT22;7272;53.668;9.578;2022-12-18T13:11:35;1.20;99.90
14378;DHT22;7272;53.668;9.578;2022-12-18T13:15:12;1.20;99.90
14378;DHT22;7272;53.668;9.578;2022-12-18T13:18:18;1.20;99.90
14378;DHT22;7272;53.668;9.578;2022-12-18T13:21:25;1.10;99.90
14378;DHT22;7272;53.668;9.578;2022-12-18T13:24:31;1.00;99.90
14378;DHT22;7272;53.668;9.578;2022-12-18T13:27:57;0.90;99.90
14378;DHT22;7272;53.668;9.578;2022-12-18T13:31:01;0.80;99.90
14378;DHT22;7272;53.668;9.578;2022-12-18T13:34:15;0.80;99.90
14378;DHT22;7272;53.668;9.578;2022-12-18T13:37:41;0.80;99.90
14378;DHT22;7272;53.668;9.578;2022-12-18T13:40:55;0.80;99.90
14378;DHT22;7272;53.668;9.578;2022-12-18T13:44:11;0.70;99.90
14378;DHT22;7272;53.668;9.578;2022-12-18T13:47:27;0.70;99.90
14378;DHT22;7272;53.668;9.578;2022-12-18T13:50:30;0.60;99.90
14378;DHT22;7272;53.668;9.578;2022-12-18T13:53:37;0.60;99.90
14378;DHT22;7272;53.668;9.578;2022-12-18T13:56:44;0.50;99.90
14378;DHT22;7272;53.668;9.578;2022-12-18T13:59:47;0.50;99.90
14378;DHT22;7272;53.668;9.578;2022-12-18T14:02:50;0.50;99.90
14378;DHT22;7272;53.668;9.578;2022-12-18T14:05:56;0.50;99.90
14378;DHT22;7272;53.668;9.578;2022-12-18T14:09:02;0.50;99.90
14378;DHT22;7272;53.668;9.578;2022-12-18T14:12:06;0.40;99.90
14378;DHT22;7272;53.668;9.578;2022-12-18T14:15:32;0.30;99.90
14378;DHT22;7272;53.668;9.578;2022-12-18T14:18:44;0.30;99.90
14378;DHT22;7272;53.668;9.578;2022-12-18T14:21:50;0.20;99.90
14378;DHT22;7272;53.668;9.578;2022-12-18T14:25:15;0.10;99.90
14378;DHT22;7272;53.668;9.578;2022-12-18T14:28:19;0.00;99.90
14378;DHT22;7272;53.668;9.578;2022-12-18T14:31:24;0.00;99.90
14378;DHT22;7272;53.668;9.578;2022-12-18T14:34:28;0.00;99.90
14378;DHT22;7272;53.668;9.578;2022-12-18T14:37:31;-0.10;99.90
14378;DHT22;7272;53.668;9.578;2022-12-18T14:40:36;-0.10;99.90
14378;DHT22;7272;53.668;9.578;2022-12-18T14:43:39;-0.20;99.90
14378;DHT22;7272;53.668;9.578;2022-12-18T14:46:44;-0.30;99.90
14378;DHT22;7272;53.668;9.578;2022-12-18T14:49:47;-0.40;99.90
14378;DHT22;7272;53.668;9.578;2022-12-18T14:52:50;-0.50;99.90
14378;DHT22;7272;53.668;9.578;2022-12-18T14:55:55;-0.60;99.90
14378;DHT22;7272;53.668;9.578;2022-12-18T14:58:59;-0.60;99.90
14378;DHT22;7272;53.668;9.578;2022-12-18T15:02:17;-0.70;99.90
14378;DHT22;7272;53.668;9.578;2022-12-18T15:05:26;-0.80;99.90
14378;DHT22;7272;53.668;9.578;2022-12-18T15:08:35;-0.90;99.90
14378;DHT22;7272;53.668;9.578;2022-12-18T15:11:47;-0.90;99.90
14378;DHT22;7272;53.668;9.578;2022-12-18T15:14:50;-1.00;99.90
14378;DHT22;7272;53.668;9.578;2022-12-18T15:17:57;-1.10;99.90
14378;DHT22;7272;53.668;9.578;2022-12-18T15:21:09;-1.10;99.90
14378;DHT22;7272;53.668;9.578;2022-12-18T15:24:18;-1.20;99.90
14378;DHT22;7272;53.668;9.578;2022-12-18T15:27:28;-1.30;99.90
14378;DHT22;7272;53.668;9.578;2022-12-18T15:30:31;-1.30;99.90
14378;DHT22;7272;53.668;9.578;2022-12-18T15:33:36;-1.30;99.90
14378;DHT22;7272;53.668;9.578;2022-12-18T15:36:39;-1.30;99.90
14378;DHT22;7272;53.668;9.578;2022-12-18T15:39:42;-1.40;99.90
14378;DHT22;7272;53.668;9.578;2022-12-18T15:42:47;-1.30;99.90
14378;DHT22;7272;53.668;9.578;2022-12-18T15:46:11;-1.30;99.90
14378;DHT22;7272;53.668;9.578;2022-12-18T15:49:15;-1.30;99.90
14378;DHT22;7272;53.668;9.578;2022-12-18T15:52:19;-1.30;99.90
14378;DHT22;7272;53.668;9.578;2022-12-18T15:55:27;-1.30;99.90
14378;DHT22;7272;53.668;9.578;2022-12-18T15:58:48;-1.30;99.90
14378;DHT22;7272;53.668;9.578;2022-12-18T16:01:51;-1.30;99.90
14378;DHT22;7272;53.668;9.578;2022-12-18T16:04:55;-1.30;99.90
14378;DHT22;7272;53.668;9.578;2022-12-18T16:07:58;-1.20;99.90
14378;DHT22;7272;53.668;9.578;2022-12-18T16:11:01;-1.20;99.90
14378;DHT22;7272;53.668;9.578;2022-12-18T16:14:15;-1.20;99.90
14378;DHT22;7272;53.668;9.578;2022-12-18T16:17:18;-1.20;99.90
14378;DHT22;7272;53.668;9.578;2022-12-18T16:20:22;-1.20;99.90
14378;DHT22;7272;53.668;9.578;2022-12-18T16:23:25;-1.20;99.90
14378;DHT22;7272;53.668;9.578;2022-12-18T16:26:28;-1.20;99.90
14378;DHT22;7272;53.668;9.578;2022-12-18T16:29:34;-1.20;99.90
14378;DHT22;7272;53.668;9.578;2022-12-18T16:32:37;-1.20;99.90
14378;DHT22;7272;53.668;9.578;2022-12-18T16:35:40;-1.20;99.90
14378;DHT22;7272;53.668;9.578;2022-12-18T16:38:44;-1.10;99.90
14378;DHT22;7272;53.668;9.578;2022-12-18T16:41:47;-1.10;99.90
14378;DHT22;7272;53.668;9.578;2022-12-18T16:44:54;-1.10;99.90
14378;DHT22;7272;53.668;9.578;2022-12-18T16:47:57;-1.10;99.90
14378;DHT22;7272;53.668;9.578;2022-12-18T16:51:01;-1.10;99.90
14378;DHT22;7272;53.668;9.578;2022-12-18T16:54:05;-1.10;99.90
14378;DHT22;7272;53.668;9.578;2022-12-18T16:57:09;-1.10;99.90
14378;DHT22;7272;53.668;9.578;2022-12-18T17:00:16;-1.10;99.90
14378;DHT22;7272;53.668;9.578;2022-12-18T17:03:19;-1.10;99.90
14378;DHT22;7272;53.668;9.578;2022-12-18T17:06:23;-1.10;99.90
14378;DHT22;7272;53.668;9.578;2022-12-18T17:09:26;-1.10;99.90
14378;DHT22;7272;53.668;9.578;2022-12-18T17:12:29;-1.10;99.90
14378;DHT22;7272;53.668;9.578;2022-12-18T17:15:36;-1.10;99.90
14378;DHT22;7272;53.668;9.578;2022-12-18T17:18:39;-1.20;99.90
14378;DHT22;7272;53.668;9.578;2022-12-18T17:21:42;-1.20;99.90
14378;DHT22;7272;53.668;9.578;2022-12-18T17:24:46;-1.20;99.90
14378;DHT22;7272;53.668;9.578;2022-12-18T17:27:52;-1.20;99.90
14378;DHT22;7272;53.668;9.578;2022-12-18T17:30:57;-1.20;99.90
14378;DHT22;7272;53.668;9.578;2022-12-18T17:34:01;-1.10;99.90
14378;DHT22;7272;53.668;9.578;2022-12-18T17:37:04;-1.10;99.90
14378;DHT22;7272;53.668;9.578;2022-12-18T17:40:08;-1.10;99.90
14378;DHT22;7272;53.668;9.578;2022-12-18T17:43:13;-1.10;99.90
14378;DHT22;7272;53.668;9.578;2022-12-18T17:46:19;-1.10;99.90
14378;DHT22;7272;53.668;9.578;2022-12-18T17:49:24;-1.10;99.90
14378;DHT22;7272;53.668;9.578;2022-12-18T17:52:30;-1.10;99.90
14378;DHT22;7272;53.668;9.578;2022-12-18T17:55:37;-1.20;99.90
14378;DHT22;7272;53.668;9.578;2022-12-18T17:58:41;-1.20;99.90
14378;DHT22;7272;53.668;9.578;2022-12-18T18:01:45;-1.10;99.90
14378;DHT22;7272;53.668;9.578;2022-12-18T18:04:48;-1.20;99.90
14378;DHT22;7272;53.668;9.578;2022-12-18T18:07:51;-1.20;99.90
14378;DHT22;7272;53.668;9.578;2022-12-18T18:10:55;-1.20;99.90
14378;DHT22;7272;53.668;9.578;2022-12-18T18:14:21;-1.20;99.90
14378;DHT22;7272;53.668;9.578;2022-12-18T18:17:37;-1.20;99.90
14378;DHT22;7272;53.668;9.578;2022-12-18T18:20:44;-1.20;99.90
14378;DHT22;7272;53.668;9.578;2022-12-18T18:23:54;-1.20;99.90
14378;DHT22;7272;53.668;9.578;2022-12-18T18:27:11;-1.10;99.90
14378;DHT22;7272;53.668;9.578;2022-12-18T18:30:23;-1.20;99.90
14378;DHT22;7272;53.668;9.578;2022-12-18T18:33:38;-1.10;99.90
14378;DHT22;7272;53.668;9.578;2022-12-18T18:36:49;-1.10;99.90
14378;DHT22;7272;53.668;9.578;2022-12-18T18:39:52;-1.10;99.90
14378;DHT22;7272;53.668;9.578;2022-12-18T18:42:57;-1.10;99.90
14378;DHT22;7272;53.668;9.578;2022-12-18T18:46:04;-1.10;99.90
14378;DHT22;7272;53.668;9.578;2022-12-18T18:49:19;-1.10;99.90
14378;DHT22;7272;53.668;9.578;2022-12-18T18:52:33;-1.00;99.90
14378;DHT22;7272;53.668;9.578;2022-12-18T18:55:45;-1.10;99.90
14378;DHT22;7272;53.668;9.578;2022-12-18T18:58:55;-1.10;99.90
14378;DHT22;7272;53.668;9.578;2022-12-18T19:01:59;-1.10;99.90
14378;DHT22;7272;53.668;9.578;2022-12-18T19:05:10;-1.10;99.90
14378;DHT22;7272;53.668;9.578;2022-12-18T19:08:22;-1.10;99.90
14378;DHT22;7272;53.668;9.578;2022-12-18T19:11:32;-1.00;99.90
14378;DHT22;7272;53.668;9.578;2022-12-18T19:14:53;-1.10;99.90
14378;DHT22;7272;53.668;9.578;2022-12-18T19:17:56;-1.10;99.90
14378;DHT22;7272;53.668;9.578;2022-12-18T19:21:02;-1.00;99.90
14378;DHT22;7272;53.668;9.578;2022-12-18T19:24:06;-1.00;99.90
14378;DHT22;7272;53.668;9.578;2022-12-18T19:27:09;-1.00;99.90
14378;DHT22;7272;53.668;9.578;2022-12-18T19:30:13;-1.00;99.90
14378;DHT22;7272;53.668;9.578;2022-12-18T19:33:17;-1.00;99.90
14378;DHT22;7272;53.668;9.578;2022-12-18T19:36:24;-1.00;99.90
14378;DHT22;7272;53.668;9.578;2022-12-18T19:39:27;-1.00;99.90
14378;DHT22;7272;53.668;9.578;2022-12-18T19:42:30;-1.00;99.90
14378;DHT22;7272;53.668;9.578;2022-12-18T19:45:34;-1.00;99.90
14378;DHT22;7272;53.668;9.578;2022-12-18T19:48:40;-1.00;99.90
14378;DHT22;7272;53.668;9.578;2022-12-18T19:51:47;-1.00;99.90
14378;DHT22;7272;53.668;9.578;2022-12-18T19:54:50;-1.00;99.90
14378;DHT22;7272;53.668;9.578;2022-12-18T19:57:53;-1.00;99.90
14378;DHT22;7272;53.668;9.578;2022-12-18T20:00:58;-0.90;99.90
14378;DHT22;7272;53.668;9.578;2022-12-18T20:04:01;-0.90;99.90